Time;durP1;ratioP1;P1;durP2;ratioP2;P2;SDS_P1;SDS_P2;PMS_P1;PMS_P2;Temp;Humidity;BMP_temperature;BMP_pressure;BME280_temperature;BME280_humidity;BME280_pressure;Samples;Min_cycle;Max_cycle;Signal;HPM_P1;HPM_P2
2023/12/25 00:01:08;;;;;;;0.80;0.40;;;;;;;10.03;100.00;99100.06;4970618;28;20432;-68
2023/12/25 00:03:37;;;;;;;0.80;0.50;;;;;;;10.07;100.00;99113.94;4970160;28;20453;-67
2023/12/25 00:06:20;;;;;;;2.50;0.50;;;;;;;10.15;100.00;99129.75;4967713;28;20425;-67
2023/12/25 00:08:51;;;;;;;1.20;0.60;;;;;;;10.09;100.00;99130.72;4967540;28;20422;-66
2023/12/25 00:11:20;;;;;;;0.80;0.50;;;;;;;10.01;100.00;99119.25;4966951;28;20844;-68
2023/12/25 00:13:52;;;;;;;0.80;0.50;;;;;;;10.07;100.00;99130.16;4967341;28;20928;-67
2023/12/25 00:16:20;;;;;;;0.80;0.50;;;;;;;10.00;100.00;99122.19;4958676;28;20418;-67
2023/12/25 00:18:49;;;;;;;0.90;0.50;;;;;;;10.01;100.00;99119.25;4971285;28;20486;-67
2023/12/25 00:21:19;;;;;;;1.03;0.50;;;;;;;10.02;100.00;99110.06;4971418;28;20484;-68
2023/12/25 00:23:48;;;;;;;0.80;0.40;;;;;;;10.03;100.00;99116.28;4966707;28;20435;-67
2023/12/25 00:26:17;;;;;;;0.97;0.50;;;;;;;9.95;100.00;99125.59;4972195;28;20784;-68
2023/12/25 00:28:46;;;;;;;2.50;1.23;;;;;;;10.01;100.00;99135.47;4967175;28;20446;-68
2023/12/25 00:31:15;;;;;;;1.20;0.50;;;;;;;9.96;100.00;99148.88;4961601;28;20471;-67
2023/12/25 00:33:44;;;;;;;1.00;0.50;;;;;;;9.88;100.00;99140.31;4961793;28;20554;-67
2023/12/25 00:36:13;;;;;;;3.23;0.70;;;;;;;10.01;100.00;99132.75;4965700;28;20421;-67
2023/12/25 00:38:44;;;;;;;1.40;1.03;;;;;;;10.07;100.00;99133.66;4966551;28;20442;-67
2023/12/25 00:41:13;;;;;;;1.00;0.70;;;;;;;10.14;100.00;99128.09;4968504;28;20414;-67
2023/12/25 00:43:42;;;;;;;1.77;0.60;;;;;;;10.33;100.00;99129.56;4969882;28;20501;-69
2023/12/25 00:46:10;;;;;;;1.47;0.70;;;;;;;10.16;100.00;99121.44;4964805;28;20466;-67
2023/12/25 00:48:38;;;;;;;1.10;0.50;;;;;;;10.33;100.00;99137.69;4969556;28;20509;-69
2023/12/25 00:51:07;;;;;;;0.80;0.50;;;;;;;10.25;100.00;99143.50;4961001;28;20474;-68
2023/12/25 00:53:36;;;;;;;1.23;0.60;;;;;;;10.33;100.00;99146.63;4967757;28;20509;-67
2023/12/25 00:56:08;;;;;;;0.90;0.50;;;;;;;10.40;100.00;99141.88;4969860;28;20446;-69
2023/12/25 00:58:37;;;;;;;0.80;0.50;;;;;;;10.38;100.00;99146.72;4961968;28;20425;-67
2023/12/25 01:01:06;;;;;;;1.23;0.70;;;;;;;10.27;100.00;99135.94;4964580;28;20950;-65
2023/12/25 01:03:35;;;;;;;0.97;0.60;;;;;;;10.87;100.00;99139.72;4964715;28;20556;-69
2023/12/25 01:06:05;;;;;;;3.00;0.70;;;;;;;10.77;100.00;99147.66;4965855;28;20836;-68
2023/12/25 01:08:33;;;;;;;1.03;0.50;;;;;;;10.57;100.00;99146.47;4958466;28;20443;-68
2023/12/25 01:11:05;;;;;;;1.47;0.63;;;;;;;10.80;100.00;99152.56;4965990;28;21028;-68
2023/12/25 01:13:35;;;;;;;1.53;0.80;;;;;;;10.55;100.00;99152.16;4966598;28;20502;-68
2023/12/25 01:16:04;;;;;;;1.30;0.77;;;;;;;10.62;100.00;99165.50;4965333;28;20434;-67
2023/12/25 01:18:33;;;;;;;0.97;0.60;;;;;;;10.74;100.00;99160.84;4968750;28;20431;-67
2023/12/25 01:21:02;;;;;;;1.23;0.70;;;;;;;10.64;100.00;99166.09;4957623;28;20443;-68
2023/12/25 01:23:31;;;;;;;0.90;0.60;;;;;;;10.51;100.00;99163.69;4962608;28;20436;-67
2023/12/25 01:26:00;;;;;;;0.90;0.60;;;;;;;10.64;100.00;99160.69;4962639;28;20457;-68
2023/12/25 01:28:28;;;;;;;1.00;0.50;;;;;;;10.49;100.00;99163.94;4968485;28;20481;-67
2023/12/25 01:30:58;;;;;;;1.47;0.80;;;;;;;10.93;100.00;99161.44;4975155;28;20416;-67
2023/12/25 01:33:27;;;;;;;1.00;0.50;;;;;;;10.94;100.00;99168.50;4965204;28;20427;-68
2023/12/25 01:35:56;;;;;;;0.93;0.73;;;;;;;10.87;100.00;99164.06;4973016;28;20446;-66
2023/12/25 01:38:25;;;;;;;1.07;0.60;;;;;;;10.51;100.00;99161.78;4966676;28;20950;-68
2023/12/25 01:40:54;;;;;;;1.67;0.77;;;;;;;10.44;100.00;99144.91;4975187;28;21094;-68
2023/12/25 01:43:31;;;;;;;0.80;0.50;;;;;;;10.44;100.00;99136.81;4965782;28;20447;-68
2023/12/25 01:46:01;;;;;;;1.40;0.80;;;;;;;10.35;100.00;99146.38;4960040;28;20443;-68
2023/12/25 01:48:32;;;;;;;1.07;0.67;;;;;;;10.49;100.00;99145.00;4969090;28;20439;-67
2023/12/25 01:51:02;;;;;;;6.60;1.17;;;;;;;10.48;100.00;99161.47;4971237;28;20530;-68
2023/12/25 01:53:31;;;;;;;0.90;0.60;;;;;;;10.40;100.00;99170.81;4971027;28;20498;-68
2023/12/25 01:56:00;;;;;;;2.67;1.23;;;;;;;10.46;100.00;99167.94;4972410;28;20492;-68
2023/12/25 01:58:29;;;;;;;0.80;0.50;;;;;;;10.53;100.00;99165.09;4970776;28;20821;-65
2023/12/25 02:00:58;;;;;;;1.00;0.60;;;;;;;10.50;100.00;99167.47;4976783;28;20427;-68
2023/12/25 02:03:28;;;;;;;1.50;0.80;;;;;;;10.52;100.00;99168.84;4970377;28;20425;-68
2023/12/25 02:05:58;;;;;;;1.73;0.50;;;;;;;10.54;100.00;99174.84;4974649;28;20485;-67
2023/12/25 02:08:27;;;;;;;1.43;0.87;;;;;;;10.59;100.00;99168.72;4971186;28;20429;-67
2023/12/25 02:11:02;;;;;;;3.43;1.60;;;;;;;10.79;100.00;99172.59;4970501;28;20962;-68
2023/12/25 02:13:30;;;;;;;1.20;0.67;;;;;;;10.92;100.00;99178.72;4976774;28;20448;-69
2023/12/25 02:16:04;;;;;;;1.33;0.70;;;;;;;10.90;100.00;99168.97;4973084;28;20435;-69
2023/12/25 02:18:35;;;;;;;1.00;0.70;;;;;;;11.11;100.00;99175.53;4975573;28;20522;-68
2023/12/25 02:21:04;;;;;;;1.10;0.60;;;;;;;11.26;100.00;99174.94;4971511;28;20521;-67
2023/12/25 02:23:37;;;;;;;2.70;0.73;;;;;;;11.05;100.00;99164.84;4967244;28;20409;-67
2023/12/25 02:26:08;;;;;;;0.90;0.60;;;;;;;11.09;100.00;99166.81;4975042;28;20962;-67
2023/12/25 02:28:37;;;;;;;0.93;0.60;;;;;;;10.98;100.00;99175.06;4970997;28;20414;-68
2023/12/25 02:31:06;;;;;;;2.57;0.83;;;;;;;11.00;100.00;99172.91;4967967;28;20486;-68
2023/12/25 02:33:36;;;;;;;3.10;0.70;;;;;;;10.89;100.00;99170.03;4976880;28;20489;-67
2023/12/25 02:36:05;;;;;;;1.67;0.70;;;;;;;10.93;100.00;99186.63;4975288;28;20961;-67
2023/12/25 02:38:34;;;;;;;1.00;0.60;;;;;;;11.19;100.00;99175.09;4963960;28;21005;-68
2023/12/25 02:41:04;;;;;;;1.83;1.03;;;;;;;11.16;100.00;99169.38;4969628;28;20427;-67
2023/12/25 02:43:35;;;;;;;1.73;1.10;;;;;;;11.03;100.00;99159.72;4975299;28;20424;-67
2023/12/25 02:46:04;;;;;;;1.00;0.73;;;;;;;11.11;100.00;99163.88;4968025;28;20430;-65
2023/12/25 02:48:34;;;;;;;1.20;0.80;;;;;;;10.90;100.00;99187.91;4964352;28;20446;-67
2023/12/25 02:51:03;;;;;;;1.30;0.60;;;;;;;11.16;100.00;99174.78;4965305;28;20424;-68
2023/12/25 02:53:31;;;;;;;1.50;0.60;;;;;;;11.09;100.00;99184.94;4970198;28;20448;-68
2023/12/25 02:56:00;;;;;;;0.83;0.60;;;;;;;11.05;100.00;99162.16;4974235;28;20457;-68
2023/12/25 02:58:30;;;;;;;0.90;0.80;;;;;;;11.12;100.00;99168.22;4967551;28;20511;-65
2023/12/25 03:01:00;;;;;;;1.00;0.60;;;;;;;11.01;100.00;99169.13;4965761;28;20846;-68
2023/12/25 03:03:29;;;;;;;14.23;0.80;;;;;;;11.02;100.00;99187.84;4974728;28;20447;-68
2023/12/25 03:05:58;;;;;;;0.93;0.50;;;;;;;11.14;100.00;99198.56;4974631;28;20556;-68
2023/12/25 03:08:27;;;;;;;0.90;0.53;;;;;;;11.12;100.00;99189.88;4972687;28;20840;-68
2023/12/25 03:10:56;;;;;;;0.90;0.60;;;;;;;10.90;100.00;99193.31;4973546;28;20420;-68
2023/12/25 03:13:25;;;;;;;2.00;0.83;;;;;;;10.84;100.00;99191.59;4966387;28;20880;-68
2023/12/25 03:15:54;;;;;;;1.00;0.50;;;;;;;10.89;100.00;99188.19;4971747;28;20431;-67
2023/12/25 03:18:24;;;;;;;2.07;1.00;;;;;;;10.71;100.00;99183.78;4969184;28;20451;-67
2023/12/25 03:20:55;;;;;;;1.00;0.67;;;;;;;10.73;100.00;99178.16;4968876;28;20509;-67
2023/12/25 03:23:23;;;;;;;1.00;0.60;;;;;;;10.76;100.00;99186.59;4963849;28;20501;-68
2023/12/25 03:25:52;;;;;;;0.80;0.50;;;;;;;10.61;100.00;99183.63;4977284;28;20950;-65
2023/12/25 03:28:21;;;;;;;1.03;0.60;;;;;;;10.46;100.00;99183.34;4972469;28;20527;-68
2023/12/25 03:30:50;;;;;;;1.00;0.80;;;;;;;10.56;100.00;99198.94;4971427;28;20431;-68
2023/12/25 03:33:18;;;;;;;1.63;0.60;;;;;;;10.61;100.00;99194.44;4973141;28;20456;-68
2023/12/25 03:35:48;;;;;;;0.90;0.60;;;;;;;10.59;100.00;99185.75;4976181;28;20849;-67
2023/12/25 03:38:18;;;;;;;0.90;0.60;;;;;;;10.54;100.00;99180.25;4968341;28;20454;-68
2023/12/25 03:40:47;;;;;;;3.00;1.57;;;;;;;10.50;100.00;99175.59;4976312;28;20783;-67
2023/12/25 03:43:15;;;;;;;1.43;0.60;;;;;;;10.56;100.00;99191.63;4976083;28;20419;-68
2023/12/25 03:45:44;;;;;;;1.93;0.70;;;;;;;10.58;100.00;99189.53;4961096;28;20471;-67
2023/12/25 03:48:13;;;;;;;3.00;0.70;;;;;;;10.63;100.00;99189.63;4975089;28;20434;-66
2023/12/25 03:50:42;;;;;;;1.30;0.57;;;;;;;10.66;100.00;99199.09;4973810;28;20444;-68
2023/12/25 03:53:12;;;;;;;1.27;0.73;;;;;;;10.66;100.00;99196.41;4974504;28;20827;-68
2023/12/25 03:55:41;;;;;;;1.00;0.60;;;;;;;10.62;100.00;99195.25;4969177;28;20539;-68
2023/12/25 03:58:09;;;;;;;6.50;1.17;;;;;;;10.55;100.00;99194.59;4957370;28;20435;-65
2023/12/25 04:00:39;;;;;;;2.17;0.70;;;;;;;10.59;100.00;99202.00;4964462;28;20820;-67
2023/12/25 04:03:08;;;;;;;0.80;0.50;;;;;;;10.46;100.00;99205.78;4968513;28;20935;-66
2023/12/25 04:05:38;;;;;;;2.23;0.70;;;;;;;10.49;100.00;99190.97;4964681;28;20521;-70
2023/12/25 04:08:08;;;;;;;0.80;0.50;;;;;;;10.52;100.00;99195.06;4964959;28;20453;-69
2023/12/25 04:10:38;;;;;;;3.00;2.80;;;;;;;10.63;100.00;99192.31;4975270;28;20490;-68
2023/12/25 04:13:06;;;;;;;1.03;0.50;;;;;;;10.66;100.00;99197.22;4975598;28;20438;-68
2023/12/25 04:15:35;;;;;;;2.00;1.03;;;;;;;10.60;100.00;99208.22;4973110;28;20528;-67
2023/12/25 04:18:04;;;;;;;1.27;0.70;;;;;;;10.77;100.00;99212.59;4973932;28;20462;-68
2023/12/25 04:20:33;;;;;;;0.90;0.60;;;;;;;10.82;100.00;99209.97;4974002;28;20469;-67
2023/12/25 04:23:02;;;;;;;1.20;0.73;;;;;;;10.66;100.00;99208.06;4972637;28;20807;-67
2023/12/25 04:25:30;;;;;;;2.10;0.77;;;;;;;10.63;100.00;99197.72;4971565;28;20490;-68
2023/12/25 04:28:00;;;;;;;1.30;0.70;;;;;;;10.57;100.00;99187.88;4975557;28;20444;-67
2023/12/25 04:30:29;;;;;;;3.33;0.90;;;;;;;10.70;100.00;99186.72;4974342;28;20410;-68
2023/12/25 04:32:58;;;;;;;0.80;0.50;;;;;;;10.77;100.00;99196.34;4971031;28;20539;-68
2023/12/25 04:35:29;;;;;;;1.83;0.60;;;;;;;10.94;100.00;99198.25;4968395;28;20471;-68
2023/12/25 04:37:58;;;;;;;1.10;0.70;;;;;;;10.82;100.00;99211.84;4966786;28;20805;-67
2023/12/25 04:40:26;;;;;;;1.00;0.50;;;;;;;10.79;100.00;99196.13;4966823;28;20522;-68
2023/12/25 04:42:55;;;;;;;0.80;0.50;;;;;;;10.78;100.00;99189.88;4963241;28;20398;-67
2023/12/25 04:45:25;;;;;;;0.83;0.57;;;;;;;10.79;100.00;99194.25;4967760;28;20463;-67
2023/12/25 04:47:54;;;;;;;0.80;0.60;;;;;;;10.94;100.00;99214.50;4955352;28;20476;-67
2023/12/25 04:50:23;;;;;;;1.23;0.70;;;;;;;11.03;100.00;99203.03;4974545;28;20490;-68
2023/12/25 04:52:53;;;;;;;2.07;0.60;;;;;;;11.11;100.00;99201.78;4971784;28;20534;-66
2023/12/25 04:55:22;;;;;;;1.30;0.80;;;;;;;11.01;100.00;99201.59;4969466;28;20460;-67
2023/12/25 04:57:50;;;;;;;0.80;0.53;;;;;;;10.94;100.00;99195.56;4967850;28;20527;-67
2023/12/25 05:00:19;;;;;;;3.00;1.00;;;;;;;10.95;100.00;99183.63;4960803;28;20458;-68
2023/12/25 05:02:53;;;;;;;8.23;2.00;;;;;;;10.90;100.00;99192.50;4963697;28;20432;-65
2023/12/25 05:05:23;;;;;;;1.20;0.60;;;;;;;10.99;100.00;99184.81;4968818;28;20795;-67
2023/12/25 05:07:52;;;;;;;1.10;0.57;;;;;;;11.06;100.00;99185.47;4960351;28;20418;-65
2023/12/25 05:10:21;;;;;;;1.63;0.90;;;;;;;11.07;100.00;99189.81;4969410;28;20417;-67
2023/12/25 05:12:49;;;;;;;1.10;0.70;;;;;;;11.16;100.00;99186.44;4966505;28;20437;-68
2023/12/25 05:15:18;;;;;;;1.03;0.60;;;;;;;11.19;100.00;99190.53;4968410;28;20459;-66
2023/12/25 05:17:46;;;;;;;1.57;0.60;;;;;;;11.10;100.00;99189.31;4970855;28;20439;-66
2023/12/25 05:20:17;;;;;;;2.67;0.80;;;;;;;11.21;100.00;99191.94;4966360;28;20429;-67
2023/12/25 05:22:45;;;;;;;2.03;0.80;;;;;;;11.21;100.00;99193.81;4970524;28;20842;-67
2023/12/25 05:25:14;;;;;;;1.20;0.50;;;;;;;11.27;100.00;99204.50;4971313;28;21007;-67
2023/12/25 05:27:42;;;;;;;0.90;0.60;;;;;;;11.27;100.00;99195.53;4961566;28;20546;-67
2023/12/25 05:30:12;;;;;;;1.00;0.60;;;;;;;11.30;100.00;99192.31;4973989;28;20502;-68
2023/12/25 05:32:41;;;;;;;0.80;0.50;;;;;;;11.49;100.00;99190.16;4958988;28;20447;-67
2023/12/25 05:35:10;;;;;;;0.90;0.53;;;;;;;11.36;100.00;99190.53;4963914;28;20486;-67
2023/12/25 05:37:40;;;;;;;1.30;0.80;;;;;;;11.32;100.00;99184.78;4963413;28;20443;-68
2023/12/25 05:40:09;;;;;;;1.00;0.60;;;;;;;11.31;100.00;99194.81;4960825;28;20413;-68
2023/12/25 05:42:38;;;;;;;1.63;0.67;;;;;;;11.30;100.00;99203.16;4964949;28;20477;-68
2023/12/25 05:45:08;;;;;;;1.20;0.60;;;;;;;11.41;100.00;99210.38;4969544;28;20521;-68
2023/12/25 05:47:36;;;;;;;2.90;0.70;;;;;;;11.44;100.00;99199.03;4967256;28;20436;-67
2023/12/25 05:50:08;;;;;;;1.03;0.60;;;;;;;11.43;100.00;99197.38;4965462;28;20487;-68
2023/12/25 05:52:38;;;;;;;1.00;0.80;;;;;;;11.51;100.00;99199.69;4968368;28;20590;-68
2023/12/25 05:55:08;;;;;;;3.00;0.70;;;;;;;11.55;100.00;99200.00;4974921;28;21026;-68
2023/12/25 05:57:36;;;;;;;1.30;0.90;;;;;;;11.63;100.00;99205.81;4966535;28;20783;-68
2023/12/25 06:00:06;;;;;;;0.80;0.50;;;;;;;11.56;100.00;99207.91;4971787;28;20428;-67
2023/12/25 06:02:41;;;;;;;1.10;0.73;;;;;;;11.45;100.00;99210.69;4971892;28;20411;-67
2023/12/25 06:05:10;;;;;;;1.20;0.77;;;;;;;11.40;100.00;99210.63;4962898;28;20424;-67
2023/12/25 06:07:40;;;;;;;3.70;2.00;;;;;;;11.32;100.00;99206.47;4970715;28;20442;-68
2023/12/25 06:10:09;;;;;;;1.30;0.70;;;;;;;11.32;100.00;99195.63;4962112;28;20525;-67
2023/12/25 06:12:38;;;;;;;1.10;0.50;;;;;;;11.45;100.00;99205.28;4974676;28;20842;-67
2023/12/25 06:15:08;;;;;;;1.10;0.73;;;;;;;11.34;100.00;99193.47;4972344;28;20459;-67
2023/12/25 06:17:37;;;;;;;1.93;0.57;;;;;;;11.41;100.00;99213.09;4969830;28;20469;-68
2023/12/25 06:20:08;;;;;;;1.43;0.80;;;;;;;11.47;100.00;99198.56;4974902;28;20437;-68
2023/12/25 06:22:48;;;;;;;0.90;0.60;;;;;;;11.41;100.00;99212.25;4978158;28;20436;-68
2023/12/25 06:25:16;;;;;;;1.40;0.60;;;;;;;11.48;99.54;99211.00;4973933;28;20464;-68
2023/12/25 06:27:45;;;;;;;1.20;0.80;;;;;;;11.51;97.95;99221.38;4970221;28;20898;-68
2023/12/25 06:30:26;;;;;;;1.20;0.80;;;;;;;11.44;97.91;99231.53;4968376;28;20445;-68
2023/12/25 06:32:54;;;;;;;1.00;0.50;;;;;;;11.54;97.42;99214.63;4970481;28;20407;-67
2023/12/25 06:35:24;;;;;;;2.00;1.90;;;;;;;11.48;97.37;99243.50;4977550;28;21069;-66
2023/12/25 06:37:54;;;;;;;1.13;0.70;;;;;;;11.48;96.83;99259.75;4959121;28;20439;-67
2023/12/25 06:40:23;;;;;;;0.97;0.60;;;;;;;11.43;96.79;99261.56;4971778;28;20957;-68
2023/12/25 06:42:52;;;;;;;1.17;0.70;;;;;;;11.55;97.69;99273.97;4964242;28;20442;-67
2023/12/25 06:45:20;;;;;;;1.20;1.03;;;;;;;11.52;96.44;99257.41;4987920;28;20479;-68
2023/12/25 06:47:48;;;;;;;1.33;0.77;;;;;;;11.46;97.43;99275.47;4977470;28;20435;-68
2023/12/25 06:50:17;;;;;;;1.37;0.60;;;;;;;11.45;97.72;99273.81;4958230;28;20441;-68
2023/12/25 06:52:46;;;;;;;3.90;0.70;;;;;;;11.51;98.18;99290.97;4975930;28;20963;-68
2023/12/25 06:55:16;;;;;;;0.80;0.50;;;;;;;11.46;98.66;99299.00;4973954;28;20874;-67
2023/12/25 06:57:44;;;;;;;1.40;0.80;;;;;;;11.49;98.39;99309.34;4969441;28;20444;-68
2023/12/25 07:00:14;;;;;;;1.47;0.60;;;;;;;11.44;99.42;99301.97;4968658;28;20461;-66
2023/12/25 07:02:43;;;;;;;2.20;1.77;;;;;;;11.34;99.00;99308.03;4969653;28;20893;-69
2023/12/25 07:05:13;;;;;;;0.93;0.70;;;;;;;11.18;100.00;99308.03;4969529;28;20449;-69
2023/12/25 07:07:46;;;;;;;0.90;0.63;;;;;;;11.22;100.00;99306.47;4961397;28;20493;-68
2023/12/25 07:10:17;;;;;;;1.90;0.90;;;;;;;11.10;100.00;99311.94;4969618;28;20436;-68
2023/12/25 07:12:45;;;;;;;1.43;1.33;;;;;;;11.09;99.68;99313.00;4975085;28;20410;-68
2023/12/25 07:15:14;;;;;;;0.90;0.63;;;;;;;11.24;98.79;99317.84;4972967;28;20866;-67
2023/12/25 07:17:43;;;;;;;1.20;0.70;;;;;;;11.41;98.02;99324.13;4964581;28;20437;-68
2023/12/25 07:20:12;;;;;;;0.80;0.50;;;;;;;11.31;97.55;99324.78;4972312;28;20442;-68
2023/12/25 07:22:41;;;;;;;1.77;0.70;;;;;;;11.23;97.88;99333.28;4970281;28;20497;-67
2023/12/25 07:25:10;;;;;;;1.37;0.80;;;;;;;11.28;98.12;99336.06;4966264;28;20472;-67
2023/12/25 07:27:40;;;;;;;2.93;0.80;;;;;;;11.22;97.20;99331.66;4971150;28;20465;-68
2023/12/25 07:30:10;;;;;;;3.70;0.67;;;;;;;11.19;97.88;99342.97;4966168;28;20404;-68
2023/12/25 07:32:41;;;;;;;1.27;0.90;;;;;;;11.18;97.66;99344.03;4969194;28;20403;-68
2023/12/25 07:35:10;;;;;;;1.20;0.60;;;;;;;11.25;97.40;99357.41;4976224;28;20969;-68
2023/12/25 07:37:39;;;;;;;1.50;0.70;;;;;;;11.27;96.01;99361.53;4974949;28;20452;-66
2023/12/25 07:40:10;;;;;;;1.27;0.80;;;;;;;11.40;95.30;99354.97;4966018;28;20528;-67
2023/12/25 07:42:40;;;;;;;1.30;0.90;;;;;;;11.38;94.61;99354.38;4975529;28;20432;-68
2023/12/25 07:45:12;;;;;;;1.80;0.63;;;;;;;11.21;93.22;99340.03;4967764;28;20448;-68
2023/12/25 07:47:40;;;;;;;1.73;0.70;;;;;;;11.26;94.25;99364.47;4962372;28;20490;-68
2023/12/25 07:50:10;;;;;;;0.80;0.50;;;;;;;11.27;93.25;99361.53;4969519;28;20506;-68
2023/12/25 07:52:39;;;;;;;1.10;0.60;;;;;;;11.19;92.91;99374.63;4969835;28;20461;-68
2023/12/25 07:55:08;;;;;;;3.57;0.77;;;;;;;11.17;94.31;99364.06;4968150;28;20489;-68
2023/12/25 07:57:37;;;;;;;1.47;0.60;;;;;;;11.05;92.73;99382.22;4959510;28;20507;-67
2023/12/25 08:00:10;;;;;;;2.60;0.90;;;;;;;11.11;92.16;99383.16;4967325;28;20407;-67
2023/12/25 08:02:41;;;;;;;3.23;0.70;;;;;;;11.28;93.22;99401.06;4967726;28;20410;-68
2023/12/25 08:05:10;;;;;;;1.47;0.80;;;;;;;11.33;92.16;99403.03;4968187;28;20457;-67
2023/12/25 08:07:39;;;;;;;0.90;0.60;;;;;;;11.22;91.39;99403.94;4964771;28;20436;-67
2023/12/25 08:10:08;;;;;;;0.90;0.70;;;;;;;11.24;91.53;99410.75;4970029;28;20904;-67
2023/12/25 08:12:37;;;;;;;0.80;0.70;;;;;;;11.35;89.86;99417.19;4974788;28;20432;-67
2023/12/25 08:15:08;;;;;;;3.33;0.90;;;;;;;11.20;88.10;99419.59;4963005;28;20451;-67
2023/12/25 08:17:37;;;;;;;1.10;0.70;;;;;;;11.20;87.27;99412.31;4969713;28;20993;-67
2023/12/25 08:20:07;;;;;;;0.90;0.60;;;;;;;11.16;87.36;99423.84;4973686;28;20463;-67
2023/12/25 08:22:36;;;;;;;0.90;0.60;;;;;;;11.34;85.84;99427.19;4964788;28;20424;-67
2023/12/25 08:25:06;;;;;;;4.93;1.27;;;;;;;11.24;84.07;99423.47;4963213;28;20478;-67
2023/12/25 08:27:34;;;;;;;0.83;0.50;;;;;;;11.22;83.17;99431.00;4960943;28;20801;-67
2023/12/25 08:30:04;;;;;;;1.27;0.60;;;;;;;11.17;81.41;99442.56;4974014;28;20443;-67
2023/12/25 08:32:34;;;;;;;0.87;0.53;;;;;;;11.06;81.20;99426.34;4971958;28;20521;-68
2023/12/25 08:35:04;;;;;;;1.37;0.73;;;;;;;11.13;81.87;99451.41;4966348;28;20445;-68
2023/12/25 08:37:32;;;;;;;1.47;0.70;;;;;;;11.07;81.75;99455.09;4965402;28;20416;-68
2023/12/25 08:40:03;;;;;;;1.10;0.80;;;;;;;11.09;83.00;99455.66;4966904;28;20411;-67
2023/12/25 08:42:32;;;;;;;1.40;0.93;;;;;;;11.02;82.66;99455.81;4959900;28;20583;-68
2023/12/25 08:45:01;;;;;;;1.43;0.73;;;;;;;11.17;83.83;99466.13;4970216;28;20483;-68
2023/12/25 08:47:30;;;;;;;1.13;0.73;;;;;;;11.10;83.32;99457.28;4971759;28;20956;-68
2023/12/25 08:50:00;;;;;;;1.20;0.70;;;;;;;11.08;83.03;99459.44;4969290;28;20446;-67
2023/12/25 08:52:29;;;;;;;1.57;0.53;;;;;;;11.18;83.62;99468.56;4972910;28;20451;-66
2023/12/25 08:54:57;;;;;;;2.10;0.60;;;;;;;11.09;84.54;99480.00;4973397;28;20983;-67
2023/12/25 08:57:26;;;;;;;2.27;0.60;;;;;;;11.14;84.93;99485.53;4966955;28;20483;-67
2023/12/25 08:59:55;;;;;;;4.50;0.60;;;;;;;11.00;85.71;99484.16;4974809;28;20463;-67
2023/12/25 09:02:24;;;;;;;1.43;0.77;;;;;;;11.03;85.97;99505.34;4978440;28;20410;-68
2023/12/25 09:04:53;;;;;;;2.50;0.90;;;;;;;10.87;86.29;99502.31;4969677;28;20516;-66
2023/12/25 09:07:23;;;;;;;2.90;1.30;;;;;;;10.86;86.88;99484.41;4966429;28;20422;-66
2023/12/25 09:09:52;;;;;;;2.20;0.57;;;;;;;10.98;87.23;99497.94;4970687;28;20447;-67
2023/12/25 09:12:21;;;;;;;1.50;0.70;;;;;;;11.04;86.76;99493.44;4970299;28;20498;-67
2023/12/25 09:14:50;;;;;;;1.20;1.03;;;;;;;11.01;86.65;99508.28;4972862;28;20435;-68
2023/12/25 09:17:19;;;;;;;0.80;0.50;;;;;;;10.99;86.39;99520.44;4969139;28;20412;-69
2023/12/25 09:19:49;;;;;;;2.80;0.67;;;;;;;11.11;86.67;99507.69;4974315;28;20434;-68
2023/12/25 09:22:20;;;;;;;1.07;0.80;;;;;;;11.02;86.04;99522.66;4973989;28;20399;-68
2023/12/25 09:24:51;;;;;;;1.70;1.60;;;;;;;10.92;87.04;99525.13;4968302;28;20482;-68
2023/12/25 09:27:20;;;;;;;1.77;0.63;;;;;;;10.81;86.76;99524.91;4969858;28;20457;-69
2023/12/25 09:29:48;;;;;;;1.67;1.43;;;;;;;10.92;84.31;99517.00;4968503;28;20501;-68
2023/12/25 09:32:17;;;;;;;2.33;0.87;;;;;;;10.86;84.88;99527.72;4956877;28;20432;-69
2023/12/25 09:34:46;;;;;;;1.63;0.70;;;;;;;10.89;84.56;99521.03;4963727;28;20999;-69
2023/12/25 09:37:25;;;;;;;1.47;0.73;;;;;;;10.99;83.97;99515.81;4968173;28;20801;-68
2023/12/25 09:39:56;;;;;;;1.00;0.57;;;;;;;11.14;84.12;99528.84;4968339;28;20786;-68
2023/12/25 09:42:24;;;;;;;1.43;0.97;;;;;;;11.13;83.93;99529.94;4970128;28;20452;-67
2023/12/25 09:44:55;;;;;;;4.43;0.80;;;;;;;11.24;83.06;99538.00;4973375;28;20434;-66
2023/12/25 09:47:25;;;;;;;1.67;0.80;;;;;;;11.19;83.64;99534.38;4964828;28;20397;-67
2023/12/25 09:49:56;;;;;;;1.23;0.70;;;;;;;11.39;83.50;99526.66;4973034;28;20406;-67
2023/12/25 09:52:25;;;;;;;3.47;0.60;;;;;;;11.42;82.52;99537.03;4966463;28;21014;-66
2023/12/25 09:54:55;;;;;;;2.57;0.83;;;;;;;11.42;82.63;99525.38;4965599;28;20987;-68
2023/12/25 09:57:25;;;;;;;1.83;0.93;;;;;;;11.37;82.51;99534.22;4971535;28;20453;-66
2023/12/25 09:59:56;;;;;;;1.33;0.53;;;;;;;11.42;81.91;99531.63;4975689;28;20927;-67
2023/12/25 10:02:28;;;;;;;2.40;0.80;;;;;;;11.18;83.39;99535.44;4968580;28;20783;-66
2023/12/25 10:04:58;;;;;;;1.53;0.77;;;;;;;11.05;84.17;99546.53;4976464;28;20762;-69
2023/12/25 10:07:26;;;;;;;3.67;0.80;;;;;;;11.07;84.75;99542.53;4969936;28;20429;-67
2023/12/25 10:09:59;;;;;;;0.90;0.60;;;;;;;11.24;84.70;99551.53;4976606;28;20496;-68
2023/12/25 10:12:27;;;;;;;1.10;0.60;;;;;;;11.11;84.67;99561.81;4963797;28;20751;-68
2023/12/25 10:14:57;;;;;;;2.43;1.13;;;;;;;11.21;84.60;99551.22;4965776;28;20579;-67
2023/12/25 10:17:25;;;;;;;1.47;1.03;;;;;;;11.04;83.93;99556.53;4968432;28;20438;-68
2023/12/25 10:19:56;;;;;;;2.13;1.20;;;;;;;11.22;84.73;99558.28;4965165;28;20440;-67
2023/12/25 10:22:31;;;;;;;1.00;0.77;;;;;;;11.18;83.59;99565.25;4966602;28;20410;-67
2023/12/25 10:25:10;;;;;;;2.17;0.87;;;;;;;11.20;83.49;99552.25;4966216;28;20449;-68
2023/12/25 10:27:40;;;;;;;2.67;0.70;;;;;;;11.27;82.53;99564.63;4966456;28;20411;-67
2023/12/25 10:30:17;;;;;;;3.53;0.90;;;;;;;11.30;83.06;99568.72;4965665;28;20455;-68
2023/12/25 10:32:47;;;;;;;2.50;0.70;;;;;;;11.31;83.78;99556.84;4964954;28;20520;-66
2023/12/25 10:35:18;;;;;;;1.67;0.77;;;;;;;11.25;82.79;99585.69;4966282;28;20430;-66
2023/12/25 10:37:47;;;;;;;1.57;0.90;;;;;;;11.33;82.79;99566.34;4963835;28;20833;-67
2023/12/25 10:40:22;;;;;;;1.97;1.37;;;;;;;11.27;82.95;99566.50;4966294;28;20407;-68
2023/12/25 10:42:52;;;;;;;1.83;1.00;;;;;;;11.15;82.26;99576.53;4965031;28;20420;-68
2023/12/25 10:45:24;;;;;;;1.07;0.73;;;;;;;11.20;82.66;99573.94;4964954;28;20961;-67
2023/12/25 10:47:53;;;;;;;2.37;0.70;;;;;;;11.10;82.62;99585.34;4965132;28;20464;-67
2023/12/25 10:50:26;;;;;;;1.10;0.63;;;;;;;11.09;83.58;99580.16;4966071;28;20417;-68
2023/12/25 10:52:58;;;;;;;1.00;0.60;;;;;;;11.26;84.34;99594.66;4964541;28;20466;-68
2023/12/25 10:55:37;;;;;;;1.97;1.00;;;;;;;11.16;83.11;99572.75;4962473;28;20460;-68
2023/12/25 10:58:08;;;;;;;1.57;1.23;;;;;;;11.00;82.82;99584.31;4965206;28;20523;-68
2023/12/25 11:00:39;;;;;;;4.10;0.83;;;;;;;11.29;82.14;99594.97;4965573;28;20439;-66
2023/12/25 11:03:14;;;;;;;2.10;0.70;;;;;;;11.34;81.62;99588.84;4967245;28;20396;-68
2023/12/25 11:05:43;;;;;;;1.40;0.73;;;;;;;11.65;79.21;99591.13;4967900;28;20432;-66
2023/12/25 11:08:13;;;;;;;1.10;0.70;;;;;;;11.55;79.94;99590.09;4966225;28;20419;-66
2023/12/25 11:10:51;;;;;;;1.90;0.93;;;;;;;11.54;79.85;99604.69;4965970;28;20408;-66
2023/12/25 11:13:20;;;;;;;1.97;1.00;;;;;;;11.51;79.16;99621.44;4963168;28;20618;-66
2023/12/25 11:15:48;;;;;;;0.93;0.60;;;;;;;11.44;80.17;99597.19;4974095;28;20503;-67
2023/12/25 11:18:18;;;;;;;3.13;1.13;;;;;;;11.29;81.42;99618.53;4971099;28;20540;-68
2023/12/25 11:21:04;;;;;;;2.23;1.93;;;;;;;11.52;81.17;99618.47;4966998;28;20412;-67
2023/12/25 11:23:36;;;;;;;1.20;0.70;;;;;;;11.47;79.32;99620.28;4963566;28;20412;-66
2023/12/25 11:26:12;;;;;;;2.57;0.97;;;;;;;11.40;79.04;99625.81;4969731;28;20431;-69
2023/12/25 11:28:43;;;;;;;1.73;0.93;;;;;;;11.31;78.72;99629.97;4963981;28;20430;-67
2023/12/25 11:31:21;;;;;;;2.43;1.23;;;;;;;11.03;79.29;99635.28;4965814;28;20578;-67
2023/12/25 11:33:51;;;;;;;2.93;0.90;;;;;;;11.05;79.77;99619.59;4965988;28;20443;-70
2023/12/25 11:36:21;;;;;;;2.70;1.40;;;;;;;10.90;79.63;99611.97;4967695;28;20467;-67
2023/12/25 11:38:55;;;;;;;1.20;0.80;;;;;;;10.97;80.19;99633.50;4962031;28;20464;-68
2023/12/25 11:41:25;;;;;;;1.40;1.00;;;;;;;10.88;80.60;99641.97;4962012;28;20948;-67